Time;durP1;ratioP1;P1;durP2;ratioP2;P2;SDS_P1;SDS_P2;PMS_P1;PMS_P2;Temp;Humidity;BMP_temperature;BMP_pressure;BME280_temperature;BME280_humidity;BME280_pressure;Samples;Min_cycle;Max_cycle;Signal;HPM_P1;HPM_P2
2022/03/16 00:00:21;;;;;;;25.17;14.63;;;;;;;0.78;63.43;96482.73;1687458;85;21500;-65
2022/03/16 00:02:49;;;;;;;24.37;14.13;;;;;;;0.81;62.93;96481.95;1687408;85;21042;-65
2022/03/16 00:05:18;;;;;;;22.83;13.20;;;;;;;0.74;63.38;96478.26;1687464;85;21053;-65
2022/03/16 00:07:45;;;;;;;30.27;16.57;;;;;;;0.71;63.73;96485.08;1687497;85;21504;-65
2022/03/16 00:10:13;;;;;;;24.83;13.53;;;;;;;0.69;63.33;96487.61;1687593;85;21018;-65
2022/03/16 00:12:41;;;;;;;16.90;10.27;;;;;;;0.62;64.33;96490.83;1687557;85;21568;-66
2022/03/16 00:15:09;;;;;;;18.03;10.83;;;;;;;0.65;64.44;96483.13;1687312;85;21002;-66
2022/03/16 00:17:36;;;;;;;17.57;10.97;;;;;;;0.66;63.95;96466.73;1687661;85;21018;-66
2022/03/16 00:20:04;;;;;;;18.67;10.00;;;;;;;0.68;63.67;96461.58;1687451;85;21034;-66
2022/03/16 00:22:31;;;;;;;20.37;10.97;;;;;;;0.71;63.80;96451.31;1688158;85;21038;-66
2022/03/16 00:24:57;;;;;;;16.83;10.07;;;;;;;0.72;63.10;96445.27;1687649;85;21018;-66
2022/03/16 00:27:24;;;;;;;17.40;10.00;;;;;;;0.75;63.92;96436.27;1687558;85;21014;-65
2022/03/16 00:29:50;;;;;;;15.60;9.10;;;;;;;0.70;63.13;96442.61;1687399;85;20995;-66
2022/03/16 00:32:17;;;;;;;21.47;12.53;;;;;;;0.64;63.08;96434.21;1687422;85;20999;-66
2022/03/16 00:34:44;;;;;;;15.63;9.30;;;;;;;0.57;64.09;96424.87;1687213;85;21062;-66
2022/03/16 00:37:13;;;;;;;19.60;10.90;;;;;;;0.54;64.09;96426.07;1687664;85;21022;-65
2022/03/16 00:39:39;;;;;;;12.87;9.23;;;;;;;0.45;64.85;96414.94;1687521;85;21061;-66
2022/03/16 00:42:07;;;;;;;14.30;9.40;;;;;;;0.43;64.62;96403.23;1687165;85;21105;-66
2022/03/16 00:44:35;;;;;;;16.60;9.90;;;;;;;0.47;64.79;96410.69;1691770;85;21070;-65
2022/03/16 00:47:04;;;;;;;21.57;12.60;;;;;;;0.56;65.62;96403.64;1685447;85;21103;-65
2022/03/16 00:49:31;;;;;;;18.43;11.17;;;;;;;0.57;65.11;96397.60;1660218;85;21002;-65
2022/03/16 00:52:00;;;;;;;17.37;9.63;;;;;;;0.56;65.87;96395.42;1685475;85;21157;-65
2022/03/16 00:54:28;;;;;;;15.47;9.03;;;;;;;0.62;64.69;96394.31;1685617;85;21034;-66
2022/03/16 00:56:55;;;;;;;15.80;9.17;;;;;;;0.69;63.87;96390.64;1685437;85;21537;-65
2022/03/16 00:59:21;;;;;;;16.60;10.17;;;;;;;0.67;63.67;96365.02;1685436;85;21465;-66
2022/03/16 01:01:48;;;;;;;12.57;7.83;;;;;;;0.67;63.87;96371.09;1685679;85;21535;-65
2022/03/16 01:04:15;;;;;;;15.07;8.97;;;;;;;0.65;63.63;96370.16;1685517;85;21118;-66
2022/03/16 01:06:41;;;;;;;18.40;9.27;;;;;;;0.62;63.16;96355.78;1685877;85;21030;-65
2022/03/16 01:09:08;;;;;;;12.60;7.70;;;;;;;0.59;63.59;96373.45;1685598;84;21480;-66
2022/03/16 01:11:34;;;;;;;14.53;8.07;;;;;;;0.51;64.46;96363.66;1685758;84;20978;-66
2022/03/16 01:14:01;;;;;;;15.27;9.40;;;;;;;0.43;63.89;96361.69;1660474;85;21489;-66
2022/03/16 01:16:28;;;;;;;21.83;10.47;;;;;;;0.50;63.97;96357.98;1685388;85;21062;-66
2022/03/16 01:18:55;;;;;;;20.67;10.17;;;;;;;0.54;63.84;96352.94;1695075;85;21532;-66
2022/03/16 01:21:22;;;;;;;16.67;9.90;;;;;;;0.50;64.08;96362.75;1685757;85;21446;-66
2022/03/16 01:23:48;;;;;;;14.00;8.40;;;;;;;0.47;63.68;96344.91;1685597;85;20994;-66
2022/03/16 01:26:17;;;;;;;12.93;9.27;;;;;;;0.47;63.60;96330.20;1695061;85;21018;-66
2022/03/16 01:28:44;;;;;;;15.60;9.23;;;;;;;0.40;64.01;96334.34;1685728;85;21003;-65
2022/03/16 01:31:10;;;;;;;14.23;8.87;;;;;;;0.42;63.92;96335.24;1685460;84;21437;-65
2022/03/16 01:33:37;;;;;;;15.27;8.87;;;;;;;0.32;65.40;96313.72;1685623;84;21054;-65
2022/03/16 01:36:05;;;;;;;16.03;9.37;;;;;;;0.30;64.66;96320.56;1685831;85;21465;-66
2022/03/16 01:38:31;;;;;;;12.47;7.87;;;;;;;0.30;64.56;96324.45;1694884;84;21037;-65
2022/03/16 01:40:58;;;;;;;17.43;8.93;;;;;;;0.28;65.82;96300.19;1685267;85;21094;-65
2022/03/16 01:43:25;;;;;;;17.57;9.77;;;;;;;0.26;65.44;96300.55;1685423;84;21477;-65
2022/03/16 01:45:52;;;;;;;13.80;8.03;;;;;;;0.37;64.81;96304.36;1694808;84;21054;-65
2022/03/16 01:48:20;;;;;;;13.30;8.90;;;;;;;0.47;64.82;96295.58;1715595;84;21536;-65
2022/03/16 01:50:48;;;;;;;9.17;6.00;;;;;;;0.37;66.11;96290.50;1694922;85;21066;-65
2022/03/16 01:53:16;;;;;;;14.50;8.63;;;;;;;0.34;65.77;96289.12;1685521;85;21129;-65
2022/03/16 01:55:43;;;;;;;16.23;9.57;;;;;;;0.36;64.86;96278.38;1685459;85;21536;-65
2022/03/16 01:58:11;;;;;;;16.67;10.30;;;;;;;0.32;65.19;96269.59;1667425;85;21015;-65
2022/03/16 02:00:40;;;;;;;19.50;9.83;;;;;;;0.35;65.23;96268.41;1685327;85;21556;-66
2022/03/16 02:03:08;;;;;;;15.60;9.63;;;;;;;0.41;64.69;96272.48;1685641;84;21038;-65
2022/03/16 02:05:36;;;;;;;16.73;9.77;;;;;;;0.45;66.01;96277.34;1685149;85;21082;-65
2022/03/16 02:08:05;;;;;;;21.93;8.53;;;;;;;0.46;65.76;96267.86;1685510;84;21011;-65
2022/03/16 02:10:32;;;;;;;13.27;8.87;;;;;;;0.37;64.86;96260.23;1685516;85;21018;-65
2022/03/16 02:12:59;;;;;;;14.07;8.30;;;;;;;0.45;64.73;96250.50;1694906;84;21050;-65
2022/03/16 02:15:26;;;;;;;14.90;8.83;;;;;;;0.51;64.42;96246.81;1685108;85;21532;-65
2022/03/16 02:17:56;;;;;;;14.10;8.30;;;;;;;0.57;64.26;96239.20;1685240;85;21027;-65
2022/03/16 02:20:24;;;;;;;16.27;9.20;;;;;;;0.54;64.41;96245.18;1694841;84;21011;-65
2022/03/16 02:23:04;;;;;;;12.93;8.20;;;;;;;0.54;64.17;96232.62;1660351;85;21127;-66
2022/03/16 02:25:33;;;;;;;15.57;9.03;;;;;;;0.62;64.62;96224.64;1685667;85;20995;-66
2022/03/16 02:28:00;;;;;;;12.83;7.60;;;;;;;0.62;64.40;96225.52;1694900;85;21485;-65
2022/03/16 02:30:29;;;;;;;17.07;9.87;;;;;;;0.63;64.60;96230.28;1685513;85;21512;-65
2022/03/16 02:32:56;;;;;;;18.00;10.70;;;;;;;0.56;64.19;96230.95;1685596;85;21102;-65
2022/03/16 02:35:23;;;;;;;16.43;8.13;;;;;;;0.57;64.65;96223.62;1694923;85;21033;-65
2022/03/16 02:37:51;;;;;;;13.53;8.20;;;;;;;0.59;64.05;96225.84;1685357;85;21111;-66
2022/03/16 02:40:20;;;;;;;13.77;7.53;;;;;;;0.58;64.67;96221.08;1685704;85;20963;-66
2022/03/16 02:42:48;;;;;;;20.93;10.97;;;;;;;0.55;65.81;96212.30;1694996;85;21519;-65
2022/03/16 02:45:15;;;;;;;16.30;8.10;;;;;;;0.58;64.59;96209.78;1683341;84;20987;-65
2022/03/16 02:47:41;;;;;;;13.10;8.40;;;;;;;0.60;64.34;96205.10;1692149;85;21038;-66
2022/03/16 02:50:10;;;;;;;13.17;7.97;;;;;;;0.60;64.67;96203.80;1692537;84;21029;-66
2022/03/16 02:52:37;;;;;;;12.77;7.33;;;;;;;0.61;64.95;96196.92;1692146;84;21639;-66
2022/03/16 02:55:07;;;;;;;12.83;8.70;;;;;;;0.59;64.84;96199.88;1692317;84;21070;-66
2022/03/16 02:57:34;;;;;;;11.23;7.27;;;;;;;0.59;64.93;96199.88;1692513;84;21010;-65
2022/03/16 03:00:01;;;;;;;12.93;7.60;;;;;;;0.60;65.50;96201.62;1692297;84;21557;-66
2022/03/16 03:02:27;;;;;;;13.17;7.00;;;;;;;0.55;64.47;96200.61;1692443;84;21041;-66
2022/03/16 03:04:53;;;;;;;11.53;7.30;;;;;;;0.56;65.33;96207.59;1692565;84;21453;-66
2022/03/16 03:07:20;;;;;;;11.90;7.50;;;;;;;0.57;64.74;96203.72;1692541;84;21567;-66
2022/03/16 03:09:47;;;;;;;10.17;6.67;;;;;;;0.57;65.14;96195.93;1692487;84;21078;-66
2022/03/16 03:12:14;;;;;;;11.43;6.70;;;;;;;0.54;66.07;96194.97;1692438;84;21548;-65
2022/03/16 03:14:40;;;;;;;12.27;7.73;;;;;;;0.50;66.74;96191.81;1692445;84;20983;-65
2022/03/16 03:17:07;;;;;;;13.23;8.30;;;;;;;0.54;65.83;96192.38;1692321;84;21045;-65
2022/03/16 03:19:34;;;;;;;19.23;11.37;;;;;;;0.57;65.24;96189.86;1692522;85;21026;-65
2022/03/16 03:22:01;;;;;;;14.97;8.60;;;;;;;0.54;65.68;96183.28;1692474;84;21113;-66
2022/03/16 03:24:27;;;;;;;16.63;10.37;;;;;;;0.63;66.24;96181.84;1692364;84;21006;-66
2022/03/16 03:26:54;;;;;;;16.67;9.30;;;;;;;0.63;66.30;96179.64;1692484;85;21018;-65
2022/03/16 03:29:20;;;;;;;16.77;9.10;;;;;;;0.64;65.71;96184.02;1692536;85;21034;-65
2022/03/16 03:31:47;;;;;;;18.17;9.47;;;;;;;0.64;65.94;96177.52;1692209;84;21595;-66
2022/03/16 03:34:13;;;;;;;19.20;10.90;;;;;;;0.69;66.14;96161.66;1692568;84;20986;-66
2022/03/16 03:36:40;;;;;;;27.90;13.13;;;;;;;0.80;66.43;96155.45;1692415;84;21557;-66
2022/03/16 03:39:07;;;;;;;38.00;16.40;;;;;;;0.82;65.53;96157.68;1692518;84;21491;-66
2022/03/16 03:41:33;;;;;;;40.77;17.80;;;;;;;0.84;65.64;96141.73;1692366;84;21077;-66
2022/03/16 03:44:00;;;;;;;48.10;17.77;;;;;;;0.89;65.14;96148.35;1692444;85;21041;-65
2022/03/16 03:46:26;;;;;;;55.00;20.87;;;;;;;0.89;64.69;96151.83;1692812;84;21041;-65
2022/03/16 03:48:54;;;;;;;76.53;27.77;;;;;;;0.86;64.75;96150.02;1693378;85;20987;-66
2022/03/16 03:51:21;;;;;;;46.93;18.37;;;;;;;0.87;64.72;96140.50;1702847;84;21497;-65
2022/03/16 03:53:49;;;;;;;71.50;24.67;;;;;;;0.92;64.46;96147.13;1702856;84;21815;-66
2022/03/16 03:56:16;;;;;;;41.17;16.67;;;;;;;0.91;64.40;96147.56;1702980;84;21058;-66
2022/03/16 03:58:42;;;;;;;24.97;13.07;;;;;;;0.90;64.67;96147.50;1702912;84;20970;-65
2022/03/16 04:01:09;;;;;;;25.27;12.93;;;;;;;0.94;65.46;96148.06;1702841;84;21037;-65
2022/03/16 04:03:36;;;;;;;35.50;14.83;;;;;;;1.01;64.98;96135.70;1703075;84;21013;-65
2022/03/16 04:06:02;;;;;;;78.47;31.43;;;;;;;0.98;65.16;96143.39;1703009;84;21013;-65
2022/03/16 04:08:29;;;;;;;83.03;30.27;;;;;;;0.93;65.53;96131.98;1702974;84;21041;-65
2022/03/16 04:10:56;;;;;;;40.27;16.10;;;;;;;1.00;65.44;96136.52;1703203;84;21030;-66
2022/03/16 04:13:22;;;;;;;64.07;26.10;;;;;;;1.02;65.34;96143.52;1702929;84;20986;-65
2022/03/16 04:15:49;;;;;;;94.97;35.83;;;;;;;1.04;64.87;96145.74;1702974;84;21053;-65
2022/03/16 04:18:15;;;;;;;51.53;20.30;;;;;;;1.04;64.83;96144.87;1702978;84;21038;-65
2022/03/16 04:20:42;;;;;;;38.27;16.50;;;;;;;1.04;64.56;96144.44;1703035;84;21026;-65
2022/03/16 04:23:09;;;;;;;31.70;15.63;;;;;;;1.09;64.56;96144.57;1702891;84;21030;-66
2022/03/16 04:25:35;;;;;;;28.17;14.20;;;;;;;1.13;64.41;96148.12;1702930;84;21070;-69
2022/03/16 04:28:02;;;;;;;25.63;13.73;;;;;;;1.15;64.39;96154.24;1702962;84;21014;-68
2022/03/16 04:30:29;;;;;;;31.00;16.37;;;;;;;1.10;65.26;96160.61;1702954;84;21005;-71
2022/03/16 04:32:55;;;;;;;37.73;17.77;;;;;;;1.16;65.17;96166.39;1702837;84;21307;-69
2022/03/16 04:35:22;;;;;;;63.47;34.03;;;;;;;1.19;64.91;96164.77;1703090;84;21021;-69
2022/03/16 04:37:49;;;;;;;55.63;27.60;;;;;;;1.28;64.63;96170.61;1702975;84;21460;-69
2022/03/16 04:40:15;;;;;;;61.87;31.87;;;;;;;1.30;64.32;96169.81;1702992;84;21073;-69
2022/03/16 04:42:42;;;;;;;47.07;24.93;;;;;;;1.33;64.71;96172.05;1703007;84;21045;-69
2022/03/16 04:45:10;;;;;;;55.63;27.47;;;;;;;1.34;65.20;96169.92;1702917;84;21018;-69
2022/03/16 04:47:36;;;;;;;52.17;27.60;;;;;;;1.38;64.79;96169.14;1702788;84;21009;-69
2022/03/16 04:50:03;;;;;;;44.93;21.03;;;;;;;1.41;65.44;96166.22;1702939;84;21093;-68
2022/03/16 04:52:31;;;;;;;62.47;35.50;;;;;;;1.44;65.05;96181.89;1703111;84;21049;-69
2022/03/16 04:54:57;;;;;;;72.63;38.47;;;;;;;1.41;64.72;96192.22;1702948;84;21093;-68
2022/03/16 04:57:24;;;;;;;73.40;41.43;;;;;;;1.40;65.41;96191.74;1703047;84;21018;-70
2022/03/16 04:59:50;;;;;;;62.30;38.00;;;;;;;1.39;65.24;96198.22;1702957;84;21029;-70
2022/03/16 05:02:17;;;;;;;70.33;37.07;;;;;;;1.43;64.82;96209.14;1702948;84;21029;-70
2022/03/16 05:04:43;;;;;;;59.73;33.80;;;;;;;1.43;65.71;96207.41;1702912;84;21065;-70
2022/03/16 05:07:10;;;;;;;55.60;31.13;;;;;;;1.48;65.21;96218.81;1703102;84;20998;-70
2022/03/16 05:09:36;;;;;;;54.83;31.03;;;;;;;1.53;64.77;96217.64;1703028;84;21057;-70
2022/03/16 05:12:03;;;;;;;62.90;32.97;;;;;;;1.51;64.96;96227.12;1703078;84;21013;-70
2022/03/16 05:14:30;;;;;;;57.33;33.73;;;;;;;1.56;64.29;96225.95;1703083;84;21002;-70
2022/03/16 05:16:56;;;;;;;53.20;29.83;;;;;;;1.57;64.30;96227.30;1702744;84;21037;-70
2022/03/16 05:19:25;;;;;;;55.20;27.67;;;;;;;1.52;65.29;96226.30;1703041;84;21524;-70
2022/03/16 05:21:51;;;;;;;60.90;31.93;;;;;;;1.45;65.43;96226.97;1703010;84;21500;-70
2022/03/16 05:24:22;;;;;;;56.00;31.90;;;;;;;1.48;65.60;96233.55;1703140;84;21046;-70
2022/03/16 05:26:46;;;;;;;47.17;26.17;;;;;;;1.52;65.41;96227.59;1702688;84;21014;-70
2022/03/16 05:29:12;;;;;;;49.70;24.83;;;;;;;1.50;66.22;96224.07;1703070;84;21014;-69
2022/03/16 05:31:39;;;;;;;44.60;24.10;;;;;;;1.48;66.03;96229.22;1702824;84;21612;-69
2022/03/16 05:34:05;;;;;;;43.27;21.20;;;;;;;1.53;66.92;96231.08;1703163;84;21026;-69
2022/03/16 05:36:32;;;;;;;48.70;23.40;;;;;;;1.53;67.71;96225.88;1703086;84;21062;-70
2022/03/16 05:38:59;;;;;;;49.23;23.70;;;;;;;1.53;68.60;96224.14;1703051;84;21006;-70
2022/03/16 05:41:25;;;;;;;44.43;23.03;;;;;;;1.56;68.15;96219.44;1702955;84;21038;-70
2022/03/16 05:43:52;;;;;;;37.93;22.60;;;;;;;1.58;68.03;96211.27;1703073;84;20970;-70
2022/03/16 05:46:18;;;;;;;37.80;20.37;;;;;;;1.60;68.72;96209.59;1702924;84;21037;-70
2022/03/16 05:48:45;;;;;;;45.20;24.50;;;;;;;1.57;69.72;96217.32;1703194;84;21025;-70
2022/03/16 05:51:11;;;;;;;61.93;32.27;;;;;;;1.38;74.25;96228.94;1703046;84;21053;-70
2022/03/16 05:53:38;;;;;;;72.07;37.63;;;;;;;1.16;74.56;96230.97;1703084;84;21089;-70
2022/03/16 05:56:05;;;;;;;53.83;29.00;;;;;;;1.16;73.15;96230.97;1703136;84;21074;-70
2022/03/16 05:58:32;;;;;;;57.80;30.73;;;;;;;1.20;72.97;96230.20;1702859;84;21005;-69
2022/03/16 06:00:58;;;;;;;48.13;26.97;;;;;;;1.17;74.59;96238.34;1702961;84;21547;-69
2022/03/16 06:03:25;;;;;;;49.20;27.53;;;;;;;1.16;75.17;96237.86;1702185;84;21583;-72
2022/03/16 06:05:51;;;;;;;58.80;34.97;;;;;;;1.19;73.43;96234.08;1702412;84;21121;-68
2022/03/16 06:08:18;;;;;;;57.33;34.07;;;;;;;1.21;74.33;96237.17;1702986;84;21078;-69
2022/03/16 06:10:44;;;;;;;66.67;37.40;;;;;;;1.21;75.05;96231.98;1701308;84;22285;-72
2022/03/16 06:13:11;;;;;;;52.33;29.03;;;;;;;1.24;75.28;96232.05;1702138;84;21014;-73
2022/03/16 06:15:43;;;;;;;54.90;33.87;;;;;;;1.28;76.53;96231.28;1702494;84;21184;-71
2022/03/16 06:18:11;;;;;;;64.60;31.30;;;;;;;1.31;75.75;96234.41;1702177;84;21112;-71
2022/03/16 06:20:37;;;;;;;69.03;33.33;;;;;;;1.32;75.69;96235.29;1702553;84;21065;-73
2022/03/16 06:23:05;;;;;;;76.40;36.77;;;;;;;1.32;76.81;96235.29;1702708;84;21045;-76
2022/03/16 06:25:34;;;;;;;69.60;38.40;;;;;;;1.37;76.08;96231.97;1702998;84;21464;-76
2022/03/16 06:28:01;;;;;;;67.67;37.83;;;;;;;1.36;76.15;96226.32;1702605;84;21085;-70
2022/03/16 06:30:28;;;;;;;66.80;34.83;;;;;;;1.38;76.24;96224.61;1702706;84;21018;-74
2022/03/16 06:32:54;;;;;;;55.90;33.80;;;;;;;1.44;76.30;96229.13;1701580;84;21125;-74
2022/03/16 06:35:22;;;;;;;57.83;32.83;;;;;;;1.47;75.73;96233.97;1702071;84;21044;-71
2022/03/16 06:37:48;;;;;;;60.40;32.60;;;;;;;1.50;75.26;96230.58;1702176;84;21156;-73
2022/03/16 06:40:15;;;;;;;58.87;33.77;;;;;;;1.51;75.46;96223.22;1702207;84;21072;-71
2022/03/16 06:42:51;;;;;;;61.00;32.13;;;;;;;1.54;75.58;96213.31;1701483;84;21099;-73
2022/03/16 06:45:19;;;;;;;59.80;32.57;;;;;;;1.56;75.98;96216.41;1701308;84;21056;-73
2022/03/16 06:47:46;;;;;;;56.80;32.23;;;;;;;1.62;76.63;96202.29;1701899;84;21124;-69
2022/03/16 06:50:13;;;;;;;52.30;32.13;;;;;;;1.62;76.72;96195.78;1701992;84;22176;-70
2022/03/16 06:52:40;;;;;;;51.90;30.13;;;;;;;1.64;77.15;96191.51;1701592;84;21129;-69
2022/03/16 06:55:09;;;;;;;60.30;32.77;;;;;;;1.60;77.19;96188.36;1702406;84;21045;-73
2022/03/16 06:57:36;;;;;;;50.40;30.17;;;;;;;1.57;77.92;96179.61;1702612;84;21077;-72
2022/03/16 07:00:06;;;;;;;54.93;33.77;;;;;;;1.60;77.57;96162.34;1702846;84;21034;-72
2022/03/16 07:02:52;;;;;;;57.80;34.17;;;;;;;1.51;78.08;96160.41;1702489;84;21038;-74
2022/03/16 07:05:20;;;;;;;53.97;33.97;;;;;;;1.51;78.39;96151.31;1703004;84;21009;-71
2022/03/16 07:07:46;;;;;;;59.83;36.47;;;;;;;1.64;78.00;96149.89;1702866;84;21070;-68
2022/03/16 07:10:13;;;;;;;67.67;39.60;;;;;;;1.76;77.50;96145.81;1702590;84;21077;-71
2022/03/16 07:12:39;;;;;;;64.13;36.13;;;;;;;1.86;77.09;96143.89;1702934;84;20981;-74
2022/03/16 07:15:07;;;;;;;49.83;30.47;;;;;;;1.86;76.83;96130.45;1702865;84;21108;-69
2022/03/16 07:17:34;;;;;;;176.37;92.07;;;;;;;1.87;76.87;96119.64;1701160;84;21029;-68
2022/03/16 07:20:03;;;;;;;135.10;72.37;;;;;;;1.78;76.76;96120.72;1701560;84;21129;-67
2022/03/16 07:22:29;;;;;;;85.40;48.90;;;;;;;1.71;76.07;96124.88;1701719;84;21061;-67
2022/03/16 07:24:56;;;;;;;88.40;52.43;;;;;;;1.68;76.84;96113.11;1702534;84;21022;-68
2022/03/16 07:27:22;;;;;;;82.90;53.03;;;;;;;1.70;76.86;96116.63;1701668;84;21017;-68
2022/03/16 07:29:49;;;;;;;111.17;70.37;;;;;;;1.61;78.25;96113.37;1701921;84;21010;-69
2022/03/16 07:32:16;;;;;;;69.00;41.63;;;;;;;1.60;77.81;96106.86;1715070;84;21475;-68
2022/03/16 07:34:43;;;;;;;71.23;42.73;;;;;;;1.66;77.65;96106.59;1714906;83;21097;-68
2022/03/16 07:37:11;;;;;;;74.97;44.57;;;;;;;1.70;77.57;96090.63;1715231;83;21517;-68
2022/03/16 07:39:37;;;;;;;80.43;51.77;;;;;;;1.62;78.68;96095.64;1715804;83;21145;-68
2022/03/16 07:42:04;;;;;;;72.77;43.17;;;;;;;1.59;78.04;96098.17;1715544;83;21109;-69
2022/03/16 07:44:31;;;;;;;73.80;46.37;;;;;;;1.57;77.88;96109.39;1715414;84;21616;-68
2022/03/16 07:46:59;;;;;;;53.03;32.77;;;;;;;1.53;78.54;96105.81;1715052;83;21046;-69
2022/03/16 07:49:26;;;;;;;54.47;32.20;;;;;;;1.57;78.73;96101.16;1712734;84;21537;-72
2022/03/16 07:51:53;;;;;;;48.93;29.57;;;;;;;1.59;78.97;96086.47;1712343;84;20979;-68
2022/03/16 07:54:19;;;;;;;49.67;30.10;;;;;;;1.66;79.07;96082.28;1712294;84;21540;-70
2022/03/16 07:56:46;;;;;;;65.47;37.30;;;;;;;1.73;78.83;96069.45;1711100;84;21126;-69
2022/03/16 07:59:14;;;;;;;77.37;45.47;;;;;;;1.80;78.89;96070.48;1692392;84;21479;-68
2022/03/16 08:01:41;;;;;;;64.10;39.83;;;;;;;1.84;79.28;96051.90;1693118;84;21010;-68
2022/03/16 08:04:08;;;;;;;53.27;33.20;;;;;;;1.88;78.74;96033.79;1695849;84;21530;-69
2022/03/16 08:06:34;;;;;;;52.37;33.83;;;;;;;1.98;78.77;96034.88;1693239;83;21006;-67
2022/03/16 08:09:01;;;;;;;57.23;33.30;;;;;;;1.98;78.59;96037.48;1692659;84;21025;-67
2022/03/16 08:11:28;;;;;;;54.97;35.77;;;;;;;2.05;78.65;96049.78;1700023;84;21057;-69
2022/03/16 08:13:55;;;;;;;47.53;31.03;;;;;;;2.10;78.64;96055.96;1691655;84;21156;-71
2022/03/16 08:16:21;;;;;;;44.33;27.60;;;;;;;2.06;78.25;96053.25;1691789;84;21022;-72
2022/03/16 08:18:47;;;;;;;54.13;33.97;;;;;;;2.01;78.44;96050.98;1689371;84;21073;-72
2022/03/16 08:21:14;;;;;;;53.67;33.30;;;;;;;2.01;78.76;96053.15;1694509;84;21735;-68
2022/03/16 08:23:41;;;;;;;41.60;26.57;;;;;;;2.09;78.79;96053.31;1693244;84;21555;-69
2022/03/16 08:26:07;;;;;;;37.63;25.47;;;;;;;2.16;78.05;96060.41;1691790;84;21532;-69
2022/03/16 08:28:34;;;;;;;39.37;24.57;;;;;;;2.07;77.64;96046.80;1689245;84;21022;-73
2022/03/16 08:31:01;;;;;;;44.73;27.57;;;;;;;1.97;78.22;96043.54;1671998;86;21069;-72
2022/03/16 08:33:28;;;;;;;43.50;27.10;;;;;;;1.97;78.02;96047.44;1672257;86;21010;-69
2022/03/16 08:35:55;;;;;;;54.53;35.53;;;;;;;1.91;78.20;96038.19;1672547;85;21094;-67
2022/03/16 08:38:21;;;;;;;42.23;25.57;;;;;;;1.86;79.25;96044.58;1671382;86;21654;-70
2022/03/16 08:40:48;;;;;;;44.53;27.10;;;;;;;1.86;78.79;96044.58;1670886;86;21176;-68
2022/03/16 08:43:14;;;;;;;41.70;25.90;;;;;;;1.88;78.60;96045.50;1672163;84;21034;-68
2022/03/16 08:45:41;;;;;;;42.90;24.97;;;;;;;1.85;78.56;96033.73;1671517;86;21193;-71
2022/03/16 08:48:08;;;;;;;53.77;31.63;;;;;;;1.75;80.63;96027.00;1667807;85;21097;-71
2022/03/16 08:50:34;;;;;;;59.13;34.77;;;;;;;1.77;80.78;96033.12;1666384;86;21070;-70
2022/03/16 08:53:01;;;;;;;70.30;40.97;;;;;;;1.85;80.26;96025.92;1666924;86;21076;-71
2022/03/16 08:55:28;;;;;;;70.37;43.17;;;;;;;1.87;81.00;96016.86;1666965;86;21043;-69
2022/03/16 08:57:54;;;;;;;66.60;41.37;;;;;;;1.88;80.80;96014.70;1666425;86;21089;-70
2022/03/16 09:00:22;;;;;;;37.27;22.67;;;;;;;1.91;79.96;96013.46;1666528;86;21606;-69
2022/03/16 09:02:48;;;;;;;48.87;32.03;;;;;;;2.01;79.69;96027.55;1666209;86;21082;-69
2022/03/16 09:05:17;;;;;;;36.67;24.43;;;;;;;1.97;80.28;96022.72;1666166;86;21022;-68
2022/03/16 09:07:44;;;;;;;38.37;23.37;;;;;;;1.97;81.64;96024.45;1665842;86;21650;-67
2022/03/16 09:10:10;;;;;;;55.40;33.43;;;;;;;2.00;80.61;96020.61;1666745;86;21105;-68
2022/03/16 09:12:37;;;;;;;76.73;42.60;;;;;;;1.98;81.78;96020.56;1667129;86;21073;-67
2022/03/16 09:15:05;;;;;;;91.83;51.60;;;;;;;2.02;81.59;96025.42;1666055;86;21078;-68
2022/03/16 09:17:33;;;;;;;74.83;45.93;;;;;;;2.13;81.66;96013.07;1667119;86;21097;-66
2022/03/16 09:20:02;;;;;;;88.43;48.77;;;;;;;2.18;81.82;96022.28;1666517;86;21042;-67
2022/03/16 09:22:29;;;;;;;126.20;61.87;;;;;;;2.21;81.62;96018.86;1666562;86;21560;-68
2022/03/16 09:24:56;;;;;;;53.73;29.13;;;;;;;2.25;81.13;96016.78;1666575;86;21623;-68
2022/03/16 09:27:24;;;;;;;166.60;72.93;;;;;;;2.30;80.52;96016.45;1666832;86;21078;-67
2022/03/16 09:29:51;;;;;;;41.00;24.10;;;;;;;2.29;81.37;96019.89;1667488;86;21102;-71
2022/03/16 09:32:18;;;;;;;26.13;16.53;;;;;;;2.31;80.37;96021.67;1666454;86;21129;-67
2022/03/16 09:34:45;;;;;;;31.00;18.67;;;;;;;2.33;80.32;96022.59;1665964;86;21058;-72
2022/03/16 09:37:11;;;;;;;40.10;25.90;;;;;;;2.33;80.38;96032.13;1666789;86;21034;-69
2022/03/16 09:39:38;;;;;;;26.17;15.90;;;;;;;2.29;80.76;96035.11;1666484;86;21026;-69
2022/03/16 09:42:06;;;;;;;17.97;12.40;;;;;;;2.29;80.66;96035.11;1666696;86;21085;-70
2022/03/16 09:44:33;;;;;;;27.70;20.30;;;;;;;2.31;80.53;96029.48;1667402;86;21532;-67
2022/03/16 09:47:00;;;;;;;25.43;17.33;;;;;;;2.26;80.68;96028.52;1666882;85;21129;-67
2022/03/16 09:49:27;;;;;;;22.90;13.27;;;;;;;2.13;82.07;96023.91;1669153;86;21105;-70
2022/03/16 09:51:55;;;;;;;18.77;12.93;;;;;;;2.12;81.35;96023.47;1669844;86;21006;-70
2022/03/16 09:54:23;;;;;;;25.73;14.03;;;;;;;2.11;81.11;96025.17;1668988;86;21034;-77
2022/03/16 09:56:50;;;;;;;32.57;18.63;;;;;;;2.09;81.23;96013.88;1668968;86;21129;-70
2022/03/16 09:59:17;;;;;;;34.57;20.60;;;;;;;2.10;81.82;96016.05;1669062;86;21141;-74
2022/03/16 10:01:44;;;;;;;43.47;29.93;;;;;;;2.07;82.80;96023.80;1669266;86;21069;-68
2022/03/16 10:04:13;;;;;;;34.60;23.70;;;;;;;2.08;82.89;96025.54;1669272;86;21086;-67
2022/03/16 10:06:42;;;;;;;22.17;14.37;;;;;;;2.07;82.66;96027.70;1668842;85;21061;-67
2022/03/16 10:15:14;;;;;;;23.40;15.47;;;;;;;2.16;81.78;96044.36;1650925;86;21030;-67
2022/03/16 10:17:44;;;;;;;19.20;13.77;;;;;;;2.20;82.03;96049.66;1666027;86;21480;-68
2022/03/16 10:20:21;;;;;;;21.42;15.90;;;;;;;2.20;81.70;96044.45;1666712;86;21085;-67
2022/03/16 10:23:05;;;;;;;35.20;23.50;;;;;;;2.29;82.15;96040.32;1666437;86;21057;-67
2022/03/16 10:25:41;;;;;;;38.10;26.00;;;;;;;2.38;82.52;96040.48;1667035;86;21026;-67
2022/03/16 10:28:20;;;;;;;43.30;29.63;;;;;;;2.45;82.67;96036.72;1667035;86;21074;-67
2022/03/16 10:31:03;;;;;;;41.50;29.57;;;;;;;2.45;83.19;96034.11;1666957;86;21566;-66
2022/03/16 10:33:53;;;;;;;36.57;24.80;;;;;;;2.54;82.99;96032.97;1668727;86;20954;-66
2022/03/16 10:36:23;;;;;;;42.03;27.37;;;;;;;2.64;82.68;96027.08;1669550;86;21454;-66
2022/03/16 10:38:58;;;;;;;39.37;23.67;;;;;;;2.61;82.79;96021.82;1669255;86;21041;-67
2022/03/16 10:47:17;;;;;;;32.60;20.50;;;;;;;2.66;82.23;96020.18;1670837;84;21003;-67
2022/03/16 10:49:46;;;;;;;27.27;18.13;;;;;;;2.48;83.41;96028.53;1703844;84;21030;-67
2022/03/16 10:52:17;;;;;;;24.30;16.10;;;;;;;2.49;83.42;96030.70;1702379;84;21178;-67
2022/03/16 10:54:45;;;;;;;22.17;14.67;;;;;;;2.52;82.94;96023.84;1702861;84;21076;-67
2022/03/16 10:57:13;;;;;;;26.13;18.67;;;;;;;2.48;82.55;96029.83;1702872;84;21061;-67
2022/03/16 10:59:43;;;;;;;26.33;17.47;;;;;;;2.43;83.91;96034.07;1703495;84;21055;-67
2022/03/16 11:02:13;;;;;;;18.77;13.30;;;;;;;2.48;83.59;96027.22;1703730;84;21001;-67
2022/03/16 11:04:50;;;;;;;18.93;13.63;;;;;;;2.53;83.42;96026.89;1703804;84;21028;-67
2022/03/16 11:07:19;;;;;;;16.60;10.60;;;;;;;2.58;83.23;96027.85;1703988;84;21040;-67
2022/03/16 11:09:47;;;;;;;18.90;12.07;;;;;;;2.54;82.89;96039.05;1703921;84;21016;-66
2022/03/16 11:15:05;;;;;;;34.27;22.23;;;;;;;2.32;83.86;96043.41;1703941;84;21498;-66
2022/03/16 11:17:31;;;;;;;33.57;23.03;;;;;;;2.28;84.04;96044.18;1704084;84;21017;-66
2022/03/16 11:20:00;;;;;;;41.13;27.67;;;;;;;2.11;84.44;96042.52;1703631;84;21044;-66
2022/03/16 11:26:08;;;;;;;24.57;16.90;;;;;;;2.11;84.08;96045.13;1704108;84;21477;-66
2022/03/16 11:29:32;;;;;;;23.47;15.60;;;;;;;2.05;83.67;96051.08;1703978;83;21044;-67
2022/03/16 11:32:11;;;;;;;25.02;17.27;;;;;;;1.99;83.69;96053.96;1703957;84;21040;-66
2022/03/16 11:34:38;;;;;;;25.77;17.60;;;;;;;1.95;83.50;96057.80;1703695;84;21060;-67
2022/03/16 11:37:12;;;;;;;34.23;24.03;;;;;;;1.96;83.34;96069.09;1703877;83;21024;-67
2022/03/16 11:39:46;;;;;;;32.80;23.50;;;;;;;1.95;83.27;96069.95;1704069;84;21144;-66
2022/03/16 11:42:18;;;;;;;37.47;29.37;;;;;;;1.99;83.04;96073.48;1703927;84;21036;-66
2022/03/16 11:44:46;;;;;;;37.65;27.13;;;;;;;1.95;82.35;96068.64;1703866;84;21554;-66
2022/03/16 11:47:28;;;;;;;40.63;26.83;;;;;;;1.84;82.30;96076.22;1703887;84;21495;-66